sensor_id;sensor_type;location;lat;lon;timestamp;pressure;altitude;pressure_sealevel;temperature;humidity
46614;BME280;32338;50.430;6.806;2023-07-02T00:00:50;66851.34;;;13.14;100.00
46614;BME280;32338;50.430;6.806;2023-07-02T00:03:17;66855.31;;;13.18;100.00
46614;BME280;32338;50.430;6.806;2023-07-02T00:05:48;66855.31;;;13.18;100.00
46614;BME280;32338;50.430;6.806;2023-07-02T00:08:16;66853.63;;;13.16;100.00
46614;BME280;32338;50.430;6.806;2023-07-02T00:10:43;66849.09;;;13.12;100.00
46614;BME280;32338;50.430;6.806;2023-07-02T00:13:09;66846.47;;;13.12;100.00
46614;BME280;32338;50.430;6.806;2023-07-02T00:15:36;66845.72;;;13.09;100.00
46614;BME280;32338;50.430;6.806;2023-07-02T00:18:02;66854.00;;;13.14;100.00
46614;BME280;32338;50.430;6.806;2023-07-02T00:20:29;66850.59;;;13.11;100.00
46614;BME280;32338;50.430;6.806;2023-07-02T00:23:01;66839.31;;;13.01;100.00
46614;BME280;32338;50.430;6.806;2023-07-02T00:25:28;66835.38;;;12.97;100.00
46614;BME280;32338;50.430;6.806;2023-07-02T00:27:54;66835.56;;;13.00;100.00
46614;BME280;32338;50.430;6.806;2023-07-02T00:30:21;66829.91;;;12.94;100.00
46614;BME280;32338;50.430;6.806;2023-07-02T00:32:47;66822.56;;;12.88;100.00
46614;BME280;32338;50.430;6.806;2023-07-02T00:35:14;66824.81;;;12.90;100.00
46614;BME280;32338;50.430;6.806;2023-07-02T00:37:41;66818.06;;;12.84;100.00
46614;BME280;32338;50.430;6.806;2023-07-02T00:40:10;66820.88;;;12.86;100.00
46614;BME280;32338;50.430;6.806;2023-07-02T00:42:36;66797.38;;;12.67;100.00
46614;BME280;32338;50.430;6.806;2023-07-02T00:45:04;66792.25;;;12.55;100.00
46614;BME280;32338;50.430;6.806;2023-07-02T00:47:32;66795.47;;;12.63;100.00
46614;BME280;32338;50.430;6.806;2023-07-02T00:50:00;66796.97;;;12.62;100.00
46614;BME280;32338;50.430;6.806;2023-07-02T00:52:27;66790.94;;;12.59;100.00
46614;BME280;32338;50.430;6.806;2023-07-02T00:54:54;66791.16;;;12.61;100.00
46614;BME280;32338;50.430;6.806;2023-07-02T00:57:22;66787.56;;;12.56;100.00
46614;BME280;32338;50.430;6.806;2023-07-02T00:59:55;66779.28;;;12.51;100.00
46614;BME280;32338;50.430;6.806;2023-07-02T01:02:22;66779.47;;;12.46;100.00
46614;BME280;32338;50.430;6.806;2023-07-02T01:04:51;66776.28;;;12.45;100.00
46614;BME280;32338;50.430;6.806;2023-07-02T01:07:22;66771.41;;;12.43;100.00
46614;BME280;32338;50.430;6.806;2023-07-02T01:09:49;66770.63;;;12.40;100.00
46614;BME280;32338;50.430;6.806;2023-07-02T01:12:17;66768.94;;;12.39;100.00
46614;BME280;32338;50.430;6.806;2023-07-02T01:14:48;66759.53;;;12.32;100.00
46614;BME280;32338;50.430;6.806;2023-07-02T01:17:16;66754.09;;;12.30;100.00
46614;BME280;32338;50.430;6.806;2023-07-02T01:19:47;66753.53;;;12.22;100.00
46614;BME280;32338;50.430;6.806;2023-07-02T01:22:17;66746.94;;;12.19;100.00
46614;BME280;32338;50.430;6.806;2023-07-02T01:24:44;66738.47;;;12.11;100.00
46614;BME280;32338;50.430;6.806;2023-07-02T01:27:12;66731.72;;;12.05;100.00
46614;BME280;32338;50.430;6.806;2023-07-02T01:29:40;66719.28;;;11.93;100.00
46614;BME280;32338;50.430;6.806;2023-07-02T01:32:07;66707.63;;;11.85;100.00
46614;BME280;32338;50.430;6.806;2023-07-02T01:34:34;66703.31;;;11.83;100.00
46614;BME280;32338;50.430;6.806;2023-07-02T01:37:03;66706.28;;;11.81;100.00
46614;BME280;32338;50.430;6.806;2023-07-02T01:39:30;66697.66;;;11.78;100.00
46614;BME280;32338;50.430;6.806;2023-07-02T01:42:08;66703.84;;;11.77;100.00
46614;BME280;32338;50.430;6.806;2023-07-02T01:44:35;66695.22;;;11.74;100.00
46614;BME280;32338;50.430;6.806;2023-07-02T01:47:02;66697.66;;;11.71;100.00
46614;BME280;32338;50.430;6.806;2023-07-02T01:49:29;66695.38;;;11.69;100.00
46614;BME280;32338;50.430;6.806;2023-07-02T01:51:56;66693.88;;;11.70;100.00
46614;BME280;32338;50.430;6.806;2023-07-02T01:54:25;66699.34;;;11.73;100.00
46614;BME280;32338;50.430;6.806;2023-07-02T01:56:53;66693.53;;;11.72;100.00
46614;BME280;32338;50.430;6.806;2023-07-02T01:59:19;66694.81;;;11.68;100.00
46614;BME280;32338;50.430;6.806;2023-07-02T02:01:46;66695.03;;;11.71;100.00
46614;BME280;32338;50.430;6.806;2023-07-02T02:04:13;66688.81;;;11.65;100.00
46614;BME280;32338;50.430;6.806;2023-07-02T02:06:40;66682.63;;;11.60;100.00
46614;BME280;32338;50.430;6.806;2023-07-02T02:09:08;66679.44;;;11.59;100.00
46614;BME280;32338;50.430;6.806;2023-07-02T02:11:39;66673.03;;;11.51;100.00
46614;BME280;32338;50.430;6.806;2023-07-02T02:14:06;66673.59;;;11.51;100.00
46614;BME280;32338;50.430;6.806;2023-07-02T02:16:32;66678.47;;;11.54;100.00
46614;BME280;32338;50.430;6.806;2023-07-02T02:19:00;66669.28;;;11.50;100.00
46614;BME280;32338;50.430;6.806;2023-07-02T02:21:26;66667.94;;;11.46;100.00
46614;BME280;32338;50.430;6.806;2023-07-02T02:23:53;66674.16;;;11.52;100.00
46614;BME280;32338;50.430;6.806;2023-07-02T02:26:21;66671.53;;;11.52;100.00
46614;BME280;32338;50.430;6.806;2023-07-02T02:28:49;66668.31;;;11.44;100.00
46614;BME280;32338;50.430;6.806;2023-07-02T02:31:16;66660.81;;;11.42;100.00
46614;BME280;32338;50.430;6.806;2023-07-02T02:33:43;66669.44;;;11.45;100.00
46614;BME280;32338;50.430;6.806;2023-07-02T02:36:09;66674.53;;;11.50;100.00
46614;BME280;32338;50.430;6.806;2023-07-02T02:38:36;66668.53;;;11.47;100.00
46614;BME280;32338;50.430;6.806;2023-07-02T02:41:03;66673.78;;;11.54;100.00
46614;BME280;32338;50.430;6.806;2023-07-02T02:43:30;66673.38;;;11.49;100.00
46614;BME280;32338;50.430;6.806;2023-07-02T02:45:58;66679.78;;;11.50;100.00
46614;BME280;32338;50.430;6.806;2023-07-02T02:48:24;66671.34;;;11.49;100.00
46614;BME280;32338;50.430;6.806;2023-07-02T02:50:51;66677.16;;;11.50;100.00
46614;BME280;32338;50.430;6.806;2023-07-02T02:53:18;66677.16;;;11.50;100.00
46614;BME280;32338;50.430;6.806;2023-07-02T02:55:44;66670.56;;;11.46;100.00
46614;BME280;32338;50.430;6.806;2023-07-02T02:58:11;66666.81;;;11.45;100.00
46614;BME280;32338;50.430;6.806;2023-07-02T03:00:37;66666.44;;;11.47;100.00
46614;BME280;32338;50.430;6.806;2023-07-02T03:03:09;66672.84;;;11.48;100.00
46614;BME280;32338;50.430;6.806;2023-07-02T03:05:35;66669.44;;;11.45;100.00
46614;BME280;32338;50.430;6.806;2023-07-02T03:08:02;66667.75;;;11.44;100.00
46614;BME280;32338;50.430;6.806;2023-07-02T03:10:29;66669.06;;;11.47;100.00
46614;BME280;32338;50.430;6.806;2023-07-02T03:12:55;66675.28;;;11.53;100.00
46614;BME280;32338;50.430;6.806;2023-07-02T03:15:22;66678.09;;;11.56;100.00
46614;BME280;32338;50.430;6.806;2023-07-02T03:17:48;66674.72;;;11.52;100.00
46614;BME280;32338;50.430;6.806;2023-07-02T03:20:16;66670.97;;;11.51;100.00
46614;BME280;32338;50.430;6.806;2023-07-02T03:22:43;66674.72;;;11.52;100.00
46614;BME280;32338;50.430;6.806;2023-07-02T03:25:09;66675.28;;;11.53;100.00
46614;BME280;32338;50.430;6.806;2023-07-02T03:27:36;66682.41;;;11.57;100.00
46614;BME280;32338;50.430;6.806;2023-07-02T03:30:03;66677.53;;;11.55;100.00
46614;BME280;32338;50.430;6.806;2023-07-02T03:32:30;66680.34;;;11.58;100.00
46614;BME280;32338;50.430;6.806;2023-07-02T03:34:57;66682.81;;;11.62;100.00
46614;BME280;32338;50.430;6.806;2023-07-02T03:37:25;66685.97;;;11.63;100.00
46614;BME280;32338;50.430;6.806;2023-07-02T03:39:52;66690.88;;;11.65;100.00
46614;BME280;32338;50.430;6.806;2023-07-02T03:42:18;66694.47;;;11.71;100.00
46614;BME280;32338;50.430;6.806;2023-07-02T03:44:45;66688.06;;;11.70;100.00
46614;BME280;32338;50.430;6.806;2023-07-02T03:47:11;66691.06;;;11.67;100.00
46614;BME280;32338;50.430;6.806;2023-07-02T03:49:41;66691.06;;;11.67;100.00
46614;BME280;32338;50.430;6.806;2023-07-02T03:52:07;66691.66;;;11.68;100.00
46614;BME280;32338;50.430;6.806;2023-07-02T03:54:35;66696.16;;;11.72;100.00
46614;BME280;32338;50.430;6.806;2023-07-02T03:57:02;66694.47;;;11.71;100.00
46614;BME280;32338;50.430;6.806;2023-07-02T03:59:29;66704.06;;;11.79;100.00
46614;BME280;32338;50.430;6.806;2023-07-02T04:01:56;66709.31;;;11.79;100.00
46614;BME280;32338;50.430;6.806;2023-07-02T04:04:22;66699.16;;;11.77;100.00
46614;BME280;32338;50.430;6.806;2023-07-02T04:06:49;66711.56;;;11.89;100.00
46614;BME280;32338;50.430;6.806;2023-07-02T04:09:15;66719.63;;;11.91;100.00
46614;BME280;32338;50.430;6.806;2023-07-02T04:11:44;66707.97;;;11.83;100.00
46614;BME280;32338;50.430;6.806;2023-07-02T04:14:11;66710.81;;;11.86;100.00
46614;BME280;32338;50.430;6.806;2023-07-02T04:16:38;66702.53;;;11.80;100.00
46614;BME280;32338;50.430;6.806;2023-07-02T04:19:04;66712.69;;;11.82;100.00
46614;BME280;32338;50.430;6.806;2023-07-02T04:21:31;66706.28;;;11.81;100.00
46614;BME280;32338;50.430;6.806;2023-07-02T04:23:57;66708.91;;;11.81;100.00
46614;BME280;32338;50.430;6.806;2023-07-02T04:26:24;66702.53;;;11.80;100.00
46614;BME280;32338;50.430;6.806;2023-07-02T04:28:53;66713.44;;;11.86;100.00
46614;BME280;32338;50.430;6.806;2023-07-02T04:31:20;66714.38;;;11.91;100.00
46614;BME280;32338;50.430;6.806;2023-07-02T04:33:46;66713.84;;;11.91;100.00
46614;BME280;32338;50.430;6.806;2023-07-02T04:36:13;66705.34;;;11.83;100.00
46614;BME280;32338;50.430;6.806;2023-07-02T04:38:39;66711.38;;;11.86;100.00
46614;BME280;32338;50.430;6.806;2023-07-02T04:41:06;66711.75;;;11.84;100.00
46614;BME280;32338;50.430;6.806;2023-07-02T04:43:35;66712.13;;;11.82;100.00
46614;BME280;32338;50.430;6.806;2023-07-02T04:46:03;66714.56;;;11.87;100.00
46614;BME280;32338;50.430;6.806;2023-07-02T04:48:32;66711.38;;;11.86;100.00
46614;BME280;32338;50.430;6.806;2023-07-02T04:50:58;66718.69;;;11.93;100.00
46614;BME280;32338;50.430;6.806;2023-07-02T04:53:25;66732.06;;;12.03;100.00
46614;BME280;32338;50.430;6.806;2023-07-02T04:55:52;66736.22;;;12.09;100.00
46614;BME280;32338;50.430;6.806;2023-07-02T04:58:18;66746.38;;;12.18;100.00
46614;BME280;32338;50.430;6.806;2023-07-02T05:00:45;66749.56;;;12.19;100.00
46614;BME280;32338;50.430;6.806;2023-07-02T05:03:13;66751.44;;;12.23;100.00
46614;BME280;32338;50.430;6.806;2023-07-02T05:05:39;66774.94;;;12.42;100.00
46614;BME280;32338;50.430;6.806;2023-07-02T05:08:06;66777.22;;;12.44;100.00
46614;BME280;32338;50.430;6.806;2023-07-02T05:10:33;66776.09;;;12.43;100.00
46614;BME280;32338;50.430;6.806;2023-07-02T05:12:59;66784.75;;;12.53;100.00
46614;BME280;32338;50.430;6.806;2023-07-02T05:15:26;66783.22;;;12.54;100.00
46614;BME280;32338;50.430;6.806;2023-07-02T05:17:52;66787.56;;;12.56;100.00
46614;BME280;32338;50.430;6.806;2023-07-02T05:20:20;66780.81;;;12.49;100.00
46614;BME280;32338;50.430;6.806;2023-07-02T05:22:47;66784.75;;;12.53;100.00
46614;BME280;32338;50.430;6.806;2023-07-02T05:25:13;66791.50;;;12.59;100.00
46614;BME280;32338;50.430;6.806;2023-07-02T05:27:40;66785.13;;;12.58;100.00
46614;BME280;32338;50.430;6.806;2023-07-02T05:30:07;66807.13;;;12.71;100.00
46614;BME280;32338;50.430;6.806;2023-07-02T05:32:34;66810.34;;;12.79;100.00
46614;BME280;32338;50.430;6.806;2023-07-02T05:35:01;66832.34;;;12.99;100.00
46614;BME280;32338;50.430;6.806;2023-07-02T05:37:29;66872.63;;;13.31;100.00
46614;BME280;32338;50.430;6.806;2023-07-02T05:39:56;66875.66;;;13.36;100.00
46614;BME280;32338;50.430;6.806;2023-07-02T05:42:23;66860.59;;;13.25;100.00
46614;BME280;32338;50.430;6.806;2023-07-02T05:44:50;66865.69;;;13.29;100.00
46614;BME280;32338;50.430;6.806;2023-07-02T05:47:17;66871.13;;;13.32;100.00
46614;BME280;32338;50.430;6.806;2023-07-02T05:49:43;66877.34;;;13.38;100.00
46614;BME280;32338;50.430;6.806;2023-07-02T05:52:10;66884.31;;;13.39;100.00
46614;BME280;32338;50.430;6.806;2023-07-02T05:54:40;66866.97;;;13.33;100.00
46614;BME280;32338;50.430;6.806;2023-07-02T05:57:06;66861.91;;;13.28;100.00
46614;BME280;32338;50.430;6.806;2023-07-02T05:59:33;66880.19;;;13.40;100.00
46614;BME280;32338;50.430;6.806;2023-07-02T06:01:59;66878.50;;;13.39;100.00
46614;BME280;32338;50.430;6.806;2023-07-02T06:04:26;66876.59;;;13.42;100.00
46614;BME280;32338;50.430;6.806;2023-07-02T06:06:53;66886.78;;;13.44;100.00
46614;BME280;32338;50.430;6.806;2023-07-02T06:09:19;66887.16;;;13.49;100.00
46614;BME280;32338;50.430;6.806;2023-07-02T06:11:47;66904.47;;;13.62;100.00
46614;BME280;32338;50.430;6.806;2023-07-02T06:14:14;66903.16;;;13.59;100.00
46614;BME280;32338;50.430;6.806;2023-07-02T06:16:40;66892.78;;;13.54;100.00
46614;BME280;32338;50.430;6.806;2023-07-02T06:19:07;66889.41;;;13.51;100.00
46614;BME280;32338;50.430;6.806;2023-07-02T06:21:34;66893.19;;;13.52;100.00
46614;BME280;32338;50.430;6.806;2023-07-02T06:24:01;66899.97;;;13.58;100.00
46614;BME280;32338;50.430;6.806;2023-07-02T06:26:28;66903.91;;;13.62;100.00
46614;BME280;32338;50.430;6.806;2023-07-02T06:28:56;66913.13;;;13.73;100.00
46614;BME280;32338;50.430;6.806;2023-07-02T06:31:23;66922.72;;;13.82;100.00
46614;BME280;32338;50.430;6.806;2023-07-02T06:33:50;66923.69;;;13.80;100.00
46614;BME280;32338;50.430;6.806;2023-07-02T06:36:16;66923.69;;;13.80;100.00
46614;BME280;32338;50.430;6.806;2023-07-02T06:38:44;66919.91;;;13.79;100.00
46614;BME280;32338;50.430;6.806;2023-07-02T06:41:10;66937.63;;;13.90;100.00
46614;BME280;32338;50.430;6.806;2023-07-02T06:43:37;66927.63;;;13.84;100.00
46614;BME280;32338;50.430;6.806;2023-07-02T06:46:05;66938.19;;;13.91;100.00
46614;BME280;32338;50.430;6.806;2023-07-02T06:48:31;66937.25;;;13.92;100.00
46614;BME280;32338;50.430;6.806;2023-07-02T06:50:58;66931.97;;;13.92;100.00
46614;BME280;32338;50.430;6.806;2023-07-02T06:53:25;66944.59;;;13.99;100.00
46614;BME280;32338;50.430;6.806;2023-07-02T06:55:51;66952.50;;;14.06;100.00
46614;BME280;32338;50.430;6.806;2023-07-02T06:58:18;66957.59;;;14.11;100.00
46614;BME280;32338;50.430;6.806;2023-07-02T07:00:44;66956.81;;;14.08;100.00
46614;BME280;32338;50.430;6.806;2023-07-02T07:03:12;66950.59;;;14.09;100.00
46614;BME280;32338;50.430;6.806;2023-07-02T07:05:39;66949.84;;;13.99;100.00
46614;BME280;32338;50.430;6.806;2023-07-02T07:08:06;66949.69;;;14.04;100.00
46614;BME280;32338;50.430;6.806;2023-07-02T07:10:32;66949.09;;;14.03;100.00
46614;BME280;32338;50.430;6.806;2023-07-02T07:13:00;66961.34;;;14.12;100.00
46614;BME280;32338;50.430;6.806;2023-07-02T07:15:29;66980.56;;;14.30;100.00
46614;BME280;32338;50.430;6.806;2023-07-02T07:17:56;67015.25;;;14.56;100.00
46614;BME280;32338;50.430;6.806;2023-07-02T07:20:24;67018.66;;;14.67;100.00
46614;BME280;32338;50.430;6.806;2023-07-02T07:22:50;67016.00;;;14.67;100.00
46614;BME280;32338;50.430;6.806;2023-07-02T07:25:17;67024.88;;;14.72;100.00
46614;BME280;32338;50.430;6.806;2023-07-02T07:27:43;67018.84;;;14.69;100.00
46614;BME280;32338;50.430;6.806;2023-07-02T07:30:11;67036.38;;;14.78;100.00
46614;BME280;32338;50.430;6.806;2023-07-02T07:32:39;67042.38;;;14.88;100.00
46614;BME280;32338;50.430;6.806;2023-07-02T07:35:06;67047.31;;;14.90;100.00
46614;BME280;32338;50.430;6.806;2023-07-02T07:37:34;67050.50;;;14.98;100.00
46614;BME280;32338;50.430;6.806;2023-07-02T07:40:01;67059.75;;;15.02;100.00
46614;BME280;32338;50.430;6.806;2023-07-02T07:42:27;67070.31;;;15.16;100.00
46614;BME280;32338;50.430;6.806;2023-07-02T07:44:54;67085.38;;;15.28;100.00
46614;BME280;32338;50.430;6.806;2023-07-02T07:47:20;67084.63;;;15.32;100.00
46614;BME280;32338;50.430;6.806;2023-07-02T07:49:47;67086.72;;;15.31;100.00
46614;BME280;32338;50.430;6.806;2023-07-02T07:52:14;67085.56;;;15.30;100.00
46614;BME280;32338;50.430;6.806;2023-07-02T07:54:41;67078.59;;;15.21;100.00
46614;BME280;32338;50.430;6.806;2023-07-02T07:57:08;67064.66;;;15.11;100.00
46614;BME280;32338;50.430;6.806;2023-07-02T07:59:35;67072.94;;;15.16;100.00
46614;BME280;32338;50.430;6.806;2023-07-02T08:02:01;67065.41;;;15.14;100.00
46614;BME280;32338;50.430;6.806;2023-07-02T08:04:28;67068.03;;;15.14;100.00
46614;BME280;32338;50.430;6.806;2023-07-02T08:06:55;67061.81;;;15.08;100.00
46614;BME280;32338;50.430;6.806;2023-07-02T08:09:23;67060.88;;;15.03;100.00
46614;BME280;32338;50.430;6.806;2023-07-02T08:11:51;67060.50;;;15.05;100.00
46614;BME280;32338;50.430;6.806;2023-07-02T08:14:18;67063.88;;;15.08;100.00
46614;BME280;32338;50.430;6.806;2023-07-02T08:16:44;67084.25;;;15.27;100.00
46614;BME280;32338;50.430;6.806;2023-07-02T08:19:11;67091.78;;;15.36;100.00
46614;BME280;32338;50.430;6.806;2023-07-02T08:21:38;67113.47;;;15.51;100.00
46614;BME280;32338;50.430;6.806;2023-07-02T08:24:05;67136.69;;;15.79;100.00
46614;BME280;32338;50.430;6.806;2023-07-02T08:26:32;67164.63;;;16.00;100.00
46614;BME280;32338;50.430;6.806;2023-07-02T08:29:00;67155.19;;;15.94;100.00
46614;BME280;32338;50.430;6.806;2023-07-02T08:31:27;67145.00;;;15.84;100.00
46614;BME280;32338;50.430;6.806;2023-07-02T08:33:53;67154.06;;;15.93;100.00
46614;BME280;32338;50.430;6.806;2023-07-02T08:36:20;67148.97;;;15.88;100.00
46614;BME280;32338;50.430;6.806;2023-07-02T08:38:47;67126.88;;;15.68;100.00
46614;BME280;32338;50.430;6.806;2023-07-02T08:41:13;67137.06;;;15.77;100.00
46614;BME280;32338;50.430;6.806;2023-07-02T08:43:40;67128.75;;;15.72;100.00
46614;BME280;32338;50.430;6.806;2023-07-02T08:46:08;67121.97;;;15.59;100.00
46614;BME280;32338;50.430;6.806;2023-07-02T08:48:36;67113.28;;;15.55;100.00
46614;BME280;32338;50.430;6.806;2023-07-02T08:51:02;67116.69;;;15.59;100.00
46614;BME280;32338;50.430;6.806;2023-07-02T08:53:29;67130.47;;;15.66;100.00
46614;BME280;32338;50.430;6.806;2023-07-02T08:55:59;67104.63;;;15.45;100.00
46614;BME280;32338;50.430;6.806;2023-07-02T08:58:25;67104.81;;;15.48;100.00
46614;BME280;32338;50.430;6.806;2023-07-02T09:01:04;67119.72;;;15.64;100.00
46614;BME280;32338;50.430;6.806;2023-07-02T09:03:32;67143.66;;;15.81;100.00
46614;BME280;32338;50.430;6.806;2023-07-02T09:05:58;67163.50;;;15.99;100.00
46614;BME280;32338;50.430;6.806;2023-07-02T09:08:25;67167.47;;;16.02;100.00
46614;BME280;32338;50.430;6.806;2023-07-02T09:10:53;67157.09;;;15.91;100.00
46614;BME280;32338;50.430;6.806;2023-07-02T09:13:20;67141.97;;;15.79;100.00
46614;BME280;32338;50.430;6.806;2023-07-02T09:15:46;67139.31;;;15.79;100.00
46614;BME280;32338;50.430;6.806;2023-07-02T09:18:17;67149.16;;;15.83;100.00
46614;BME280;32338;50.430;6.806;2023-07-02T09:20:45;67137.44;;;15.75;100.00
46614;BME280;32338;50.430;6.806;2023-07-02T09:23:12;67143.09;;;15.80;100.00
46614;BME280;32338;50.430;6.806;2023-07-02T09:25:40;67149.16;;;15.83;100.00
46614;BME280;32338;50.430;6.806;2023-07-02T09:28:17;67153.31;;;15.89;100.00
46614;BME280;32338;50.430;6.806;2023-07-02T09:30:52;67138.19;;;15.78;100.00
46614;BME280;32338;50.430;6.806;2023-07-02T09:33:18;67134.81;;;15.75;100.00
46614;BME280;32338;50.430;6.806;2023-07-02T09:35:46;67134.22;;;15.75;100.00
46614;BME280;32338;50.430;6.806;2023-07-02T09:38:13;67131.78;;;15.70;100.00
46614;BME280;32338;50.430;6.806;2023-07-02T09:40:45;67129.16;;;15.70;100.00
46614;BME280;32338;50.430;6.806;2023-07-02T09:43:14;67131.22;;;15.69;100.00
46614;BME280;32338;50.430;6.806;2023-07-02T09:45:43;67136.13;;;15.71;100.00
46614;BME280;32338;50.430;6.806;2023-07-02T09:48:12;67147.28;;;15.86;100.00
46614;BME280;32338;50.430;6.806;2023-07-02T09:50:40;67149.91;;;15.86;100.00
46614;BME280;32338;50.430;6.806;2023-07-02T09:53:09;67140.28;;;15.78;100.00
46614;BME280;32338;50.430;6.806;2023-07-02T09:55:36;67144.59;;;15.79;100.00
46614;BME280;32338;50.430;6.806;2023-07-02T09:58:02;67139.88;;;15.80;100.00
46614;BME280;32338;50.430;6.806;2023-07-02T10:00:29;67169.53;;;16.09;100.00
46614;BME280;32338;50.430;6.806;2023-07-02T10:02:56;67220.66;;;16.51;100.00
46614;BME280;32338;50.430;6.806;2023-07-02T10:05:26;67231.44;;;16.61;100.00
46614;BME280;32338;50.430;6.806;2023-07-02T10:07:53;67216.69;;;16.47;100.00
46614;BME280;32338;50.430;6.806;2023-07-02T10:10:27;67209.72;;;16.46;100.00
46614;BME280;32338;50.430;6.806;2023-07-02T10:12:54;67215.59;;;16.46;100.00
46614;BME280;32338;50.430;6.806;2023-07-02T10:15:24;67215.38;;;16.44;100.00
46614;BME280;32338;50.430;6.806;2023-07-02T10:17:55;67200.66;;;16.37;100.00
46614;BME280;32338;50.430;6.806;2023-07-02T10:20:31;67204.63;;;16.34;100.00
46614;BME280;32338;50.430;6.806;2023-07-02T10:22:58;67204.81;;;16.36;100.00
46614;BME280;32338;50.430;6.806;2023-07-02T10:25:28;67208.38;;;16.42;100.00
46614;BME280;32338;50.430;6.806;2023-07-02T10:27:56;67223.72;;;16.49;100.00
46614;BME280;32338;50.430;6.806;2023-07-02T10:30:31;67234.06;;;16.61;100.00
46614;BME280;32338;50.430;6.806;2023-07-02T10:33:07;67229.91;;;16.62;100.00
46614;BME280;32338;50.430;6.806;2023-07-02T10:35:34;67252.97;;;16.80;100.00
46614;BME280;32338;50.430;6.806;2023-07-02T10:38:01;67261.63;;;16.91;100.00
46614;BME280;32338;50.430;6.806;2023-07-02T10:40:29;67260.50;;;16.90;100.00
46614;BME280;32338;50.430;6.806;2023-07-02T10:42:55;67264.28;;;16.91;100.00
46614;BME280;32338;50.430;6.806;2023-07-02T10:45:31;67269.00;;;16.97;100.00
46614;BME280;32338;50.430;6.806;2023-07-02T10:47:58;67284.88;;;17.12;100.00
46614;BME280;32338;50.430;6.806;2023-07-02T10:50:26;67299.44;;;17.23;100.00
46614;BME280;32338;50.430;6.806;2023-07-02T10:52:53;67324.34;;;17.45;100.00
46614;BME280;32338;50.430;6.806;2023-07-02T10:55:21;67335.09;;;17.55;100.00
46614;BME280;32338;50.430;6.806;2023-07-02T10:57:50;67342.88;;;17.60;100.00
46614;BME280;32338;50.430;6.806;2023-07-02T11:00:17;67319.25;;;17.41;100.00
46614;BME280;32338;50.430;6.806;2023-07-02T11:02:44;67311.13;;;17.31;100.00
46614;BME280;32338;50.430;6.806;2023-07-02T11:05:10;67298.28;;;17.22;100.00
46614;BME280;32338;50.430;6.806;2023-07-02T11:07:38;67284.88;;;17.12;100.00
46614;BME280;32338;50.430;6.806;2023-07-02T11:10:06;67271.84;;;17.00;100.00
46614;BME280;32338;50.430;6.806;2023-07-02T11:12:33;67270.53;;;16.96;100.00
46614;BME280;32338;50.430;6.806;2023-07-02T11:15:10;67257.47;;;16.84;100.00
46614;BME280;32338;50.430;6.806;2023-07-02T11:17:37;67256.75;;;16.81;100.00
46614;BME280;32338;50.430;6.806;2023-07-02T11:20:06;67260.50;;;16.90;100.00
46614;BME280;32338;50.430;6.806;2023-07-02T11:22:34;67262.97;;;16.94;100.00
46614;BME280;32338;50.430;6.806;2023-07-02T11:25:17;67272.97;;;17.01;100.00
46614;BME280;32338;50.430;6.806;2023-07-02T11:27:45;67280.91;;;17.08;100.00
46614;BME280;32338;50.430;6.806;2023-07-02T11:30:13;67303.78;;;17.24;100.00
46614;BME280;32338;50.430;6.806;2023-07-02T11:32:47;67323.59;;;17.42;100.00
46614;BME280;32338;50.430;6.806;2023-07-02T11:35:17;67321.72;;;17.45;100.00
46614;BME280;32338;50.430;6.806;2023-07-02T11:37:44;67310.75;;;17.33;100.00
46614;BME280;32338;50.430;6.806;2023-07-02T11:40:11;67303.00;;;17.28;100.00
46614;BME280;32338;50.430;6.806;2023-07-02T11:42:39;67306.59;;;17.27;100.00
46614;BME280;32338;50.430;6.806;2023-07-02T11:45:06;67305.66;;;17.28;100.00
46614;BME280;32338;50.430;6.806;2023-07-02T11:47:34;67322.28;;;17.46;100.00
46614;BME280;32338;50.430;6.806;2023-07-02T11:50:01;67360.97;;;17.83;100.00
46614;BME280;32338;50.430;6.806;2023-07-02T11:52:28;67375.38;;;17.92;100.00
46614;BME280;32338;50.430;6.806;2023-07-02T11:54:54;67367.06;;;17.87;100.00
46614;BME280;32338;50.430;6.806;2023-07-02T11:57:21;67368.75;;;17.88;100.00
46614;BME280;32338;50.430;6.806;2023-07-02T11:59:48;67364.03;;;17.81;100.00
46614;BME280;32338;50.430;6.806;2023-07-02T12:02:14;67351.16;;;17.72;100.00
46614;BME280;32338;50.430;6.806;2023-07-02T12:04:42;67360.25;;;17.80;100.00
46614;BME280;32338;50.430;6.806;2023-07-02T12:07:09;67355.34;;;17.71;100.00
46614;BME280;32338;50.430;6.806;2023-07-02T12:09:36;67356.28;;;17.77;100.00
46614;BME280;32338;50.430;6.806;2023-07-02T12:12:03;67371.41;;;17.88;100.00
46614;BME280;32338;50.430;6.806;2023-07-02T12:14:30;67385.38;;;18.06;100.00
46614;BME280;32338;50.430;6.806;2023-07-02T12:16:56;67421.31;;;18.34;100.00
46614;BME280;32338;50.430;6.806;2023-07-02T12:19:23;67445.88;;;18.58;100.00
46614;BME280;32338;50.430;6.806;2023-07-02T12:21:51;67440.59;;;18.51;100.00
46614;BME280;32338;50.430;6.806;2023-07-02T12:24:17;67436.63;;;18.47;100.00
46614;BME280;32338;50.430;6.806;2023-07-02T12:26:44;67423.59;;;18.36;100.00
46614;BME280;32338;50.430;6.806;2023-07-02T12:29:10;67407.50;;;18.19;100.00
46614;BME280;32338;50.430;6.806;2023-07-02T12:31:37;67389.00;;;18.04;100.00
46614;BME280;32338;50.430;6.806;2023-07-02T12:34:03;67368.38;;;17.83;100.00
46614;BME280;32338;50.430;6.806;2023-07-02T12:36:30;67359.88;;;17.75;100.00
46614;BME280;32338;50.430;6.806;2023-07-02T12:38:58;67343.22;;;17.65;100.00
46614;BME280;32338;50.430;6.806;2023-07-02T12:41:24;67336.66;;;17.54;100.00
46614;BME280;32338;50.430;6.806;2023-07-02T12:43:51;67341.16;;;17.65;100.00
46614;BME280;32338;50.430;6.806;2023-07-02T12:46:18;67376.72;;;17.95;100.00
46614;BME280;32338;50.430;6.806;2023-07-02T12:48:44;67406.00;;;18.20;100.00
46614;BME280;32338;50.430;6.806;2023-07-02T12:51:11;67395.41;;;18.12;100.00